sensor_id;sensor_type;location;lat;lon;timestamp;P1;durP1;ratioP1;P2;durP2;ratioP2
20185;SDS011;10252;48.792;8.582;2023-02-28T00:03:24;3.42;;;1.80;;
20185;SDS011;10252;48.792;8.582;2023-02-28T00:08:31;3.95;;;2.40;;
20185;SDS011;10252;48.792;8.582;2023-02-28T00:13:33;3.30;;;2.25;;
20185;SDS011;10252;48.792;8.582;2023-02-28T00:18:34;2.70;;;2.03;;
20185;SDS011;10252;48.792;8.582;2023-02-28T00:23:35;15.88;;;7.82;;
20185;SDS011;10252;48.792;8.582;2023-02-28T00:28:36;6.25;;;3.00;;
20185;SDS011;10252;48.792;8.582;2023-02-28T00:33:38;8.23;;;3.90;;
20185;SDS011;10252;48.792;8.582;2023-02-28T00:38:39;4.47;;;3.17;;
20185;SDS011;10252;48.792;8.582;2023-02-28T00:43:40;5.47;;;3.25;;
20185;SDS011;10252;48.792;8.582;2023-02-28T00:48:44;7.05;;;3.15;;
20185;SDS011;10252;48.792;8.582;2023-02-28T00:53:45;3.70;;;2.38;;
20185;SDS011;10252;48.792;8.582;2023-02-28T00:58:46;4.82;;;2.10;;
20185;SDS011;10252;48.792;8.582;2023-02-28T01:03:47;5.00;;;2.67;;
20185;SDS011;10252;48.792;8.582;2023-02-28T01:08:48;5.20;;;3.05;;
20185;SDS011;10252;48.792;8.582;2023-02-28T01:13:50;4.35;;;2.65;;
20185;SDS011;10252;48.792;8.582;2023-02-28T01:18:51;3.28;;;2.40;;
20185;SDS011;10252;48.792;8.582;2023-02-28T01:23:52;4.88;;;2.80;;
20185;SDS011;10252;48.792;8.582;2023-02-28T01:28:53;3.55;;;2.53;;
20185;SDS011;10252;48.792;8.582;2023-02-28T01:33:54;4.95;;;2.75;;
20185;SDS011;10252;48.792;8.582;2023-02-28T01:38:55;3.60;;;2.60;;
20185;SDS011;10252;48.792;8.582;2023-02-28T01:44:01;4.15;;;2.95;;
20185;SDS011;10252;48.792;8.582;2023-02-28T01:54:07;4.55;;;3.10;;
20185;SDS011;10252;48.792;8.582;2023-02-28T01:59:14;3.75;;;2.65;;
20185;SDS011;10252;48.792;8.582;2023-02-28T02:04:19;3.42;;;2.92;;
20185;SDS011;10252;48.792;8.582;2023-02-28T02:09:20;7.40;;;3.83;;
20185;SDS011;10252;48.792;8.582;2023-02-28T02:35:32;4.50;;;3.20;;
20185;SDS011;10252;48.792;8.582;2023-02-28T02:40:37;5.93;;;3.75;;
20185;SDS011;10252;48.792;8.582;2023-02-28T02:45:44;5.53;;;3.70;;
20185;SDS011;10252;48.792;8.582;2023-02-28T02:50:48;5.45;;;4.03;;
20185;SDS011;10252;48.792;8.582;2023-02-28T02:55:50;6.78;;;3.88;;
20185;SDS011;10252;48.792;8.582;2023-02-28T03:00:55;5.63;;;4.00;;
20185;SDS011;10252;48.792;8.582;2023-02-28T03:05:58;4.75;;;3.55;;
20185;SDS011;10252;48.792;8.582;2023-02-28T03:11:01;4.82;;;3.80;;
20185;SDS011;10252;48.792;8.582;2023-02-28T03:21:23;7.22;;;4.10;;
20185;SDS011;10252;48.792;8.582;2023-02-28T03:32:10;6.65;;;4.28;;
20185;SDS011;10252;48.792;8.582;2023-02-28T03:37:15;7.55;;;4.60;;
20185;SDS011;10252;48.792;8.582;2023-02-28T03:42:20;7.38;;;4.45;;
20185;SDS011;10252;48.792;8.582;2023-02-28T03:52:37;8.43;;;4.88;;
20185;SDS011;10252;48.792;8.582;2023-02-28T03:57:41;5.88;;;4.70;;
20185;SDS011;10252;48.792;8.582;2023-02-28T04:02:44;8.43;;;5.10;;
20185;SDS011;10252;48.792;8.582;2023-02-28T04:07:45;8.45;;;5.38;;
20185;SDS011;10252;48.792;8.582;2023-02-28T04:12:47;9.80;;;5.72;;
20185;SDS011;10252;48.792;8.582;2023-02-28T04:17:48;8.63;;;5.55;;
20185;SDS011;10252;48.792;8.582;2023-02-28T04:22:49;7.15;;;5.18;;
20185;SDS011;10252;48.792;8.582;2023-02-28T04:27:50;7.00;;;5.00;;
20185;SDS011;10252;48.792;8.582;2023-02-28T04:32:51;8.05;;;5.20;;
20185;SDS011;10252;48.792;8.582;2023-02-28T04:37:52;7.38;;;5.20;;
20185;SDS011;10252;48.792;8.582;2023-02-28T04:42:53;7.18;;;5.15;;
20185;SDS011;10252;48.792;8.582;2023-02-28T04:47:54;11.25;;;5.47;;
20185;SDS011;10252;48.792;8.582;2023-02-28T04:58:59;7.07;;;5.22;;
20185;SDS011;10252;48.792;8.582;2023-02-28T05:04:01;8.70;;;5.35;;
20185;SDS011;10252;48.792;8.582;2023-02-28T05:09:03;8.43;;;5.72;;
20185;SDS011;10252;48.792;8.582;2023-02-28T05:14:05;10.27;;;6.82;;
20185;SDS011;10252;48.792;8.582;2023-02-28T05:19:06;11.38;;;6.28;;
20185;SDS011;10252;48.792;8.582;2023-02-28T05:24:10;15.13;;;8.77;;
20185;SDS011;10252;48.792;8.582;2023-02-28T05:29:12;9.45;;;6.85;;
20185;SDS011;10252;48.792;8.582;2023-02-28T05:34:13;12.02;;;7.47;;
20185;SDS011;10252;48.792;8.582;2023-02-28T05:39:15;12.70;;;7.57;;
20185;SDS011;10252;48.792;8.582;2023-02-28T05:44:16;12.68;;;8.45;;
20185;SDS011;10252;48.792;8.582;2023-02-28T05:49:17;10.77;;;7.55;;
20185;SDS011;10252;48.792;8.582;2023-02-28T05:54:18;11.80;;;7.30;;
20185;SDS011;10252;48.792;8.582;2023-02-28T05:59:19;14.13;;;7.85;;
20185;SDS011;10252;48.792;8.582;2023-02-28T06:04:21;12.77;;;8.27;;
20185;SDS011;10252;48.792;8.582;2023-02-28T06:09:22;12.15;;;7.72;;
20185;SDS011;10252;48.792;8.582;2023-02-28T06:14:23;14.05;;;7.78;;
20185;SDS011;10252;48.792;8.582;2023-02-28T06:19:24;10.15;;;7.15;;
20185;SDS011;10252;48.792;8.582;2023-02-28T06:24:26;11.73;;;7.88;;
20185;SDS011;10252;48.792;8.582;2023-02-28T06:29:31;13.90;;;7.65;;
20185;SDS011;10252;48.792;8.582;2023-02-28T06:34:33;10.65;;;7.03;;
20185;SDS011;10252;48.792;8.582;2023-02-28T06:39:34;11.48;;;8.13;;
20185;SDS011;10252;48.792;8.582;2023-02-28T06:44:35;12.95;;;7.82;;
20185;SDS011;10252;48.792;8.582;2023-02-28T06:49:36;11.68;;;7.47;;
20185;SDS011;10252;48.792;8.582;2023-02-28T06:54:39;13.73;;;8.38;;
20185;SDS011;10252;48.792;8.582;2023-02-28T06:59:40;13.50;;;8.02;;
20185;SDS011;10252;48.792;8.582;2023-02-28T07:04:41;13.57;;;8.48;;
20185;SDS011;10252;48.792;8.582;2023-02-28T07:09:44;13.00;;;7.78;;
20185;SDS011;10252;48.792;8.582;2023-02-28T07:14:45;14.85;;;8.60;;
20185;SDS011;10252;48.792;8.582;2023-02-28T07:19:46;18.88;;;10.00;;
20185;SDS011;10252;48.792;8.582;2023-02-28T07:24:47;13.88;;;8.05;;
20185;SDS011;10252;48.792;8.582;2023-02-28T07:29:49;13.45;;;8.00;;
20185;SDS011;10252;48.792;8.582;2023-02-28T07:34:50;13.00;;;7.30;;
20185;SDS011;10252;48.792;8.582;2023-02-28T07:39:51;11.32;;;7.45;;
20185;SDS011;10252;48.792;8.582;2023-02-28T07:44:52;13.15;;;8.13;;
20185;SDS011;10252;48.792;8.582;2023-02-28T07:49:53;15.13;;;9.88;;
20185;SDS011;10252;48.792;8.582;2023-02-28T07:54:54;13.68;;;7.97;;
20185;SDS011;10252;48.792;8.582;2023-02-28T07:59:55;13.05;;;8.18;;
20185;SDS011;10252;48.792;8.582;2023-02-28T08:04:56;17.25;;;9.93;;
20185;SDS011;10252;48.792;8.582;2023-02-28T08:09:57;12.95;;;8.18;;
20185;SDS011;10252;48.792;8.582;2023-02-28T08:14:58;13.48;;;8.07;;
20185;SDS011;10252;48.792;8.582;2023-02-28T08:19:59;11.55;;;7.47;;
20185;SDS011;10252;48.792;8.582;2023-02-28T08:25:00;13.75;;;7.72;;
20185;SDS011;10252;48.792;8.582;2023-02-28T08:30:02;16.95;;;10.70;;
20185;SDS011;10252;48.792;8.582;2023-02-28T08:35:03;13.98;;;8.10;;
20185;SDS011;10252;48.792;8.582;2023-02-28T08:40:04;12.85;;;8.95;;
20185;SDS011;10252;48.792;8.582;2023-02-28T08:45:05;12.88;;;8.13;;
20185;SDS011;10252;48.792;8.582;2023-02-28T08:50:07;13.27;;;8.15;;
20185;SDS011;10252;48.792;8.582;2023-02-28T08:55:08;12.23;;;8.35;;
20185;SDS011;10252;48.792;8.582;2023-02-28T09:00:10;13.60;;;8.77;;
20185;SDS011;10252;48.792;8.582;2023-02-28T09:05:13;16.83;;;9.02;;
20185;SDS011;10252;48.792;8.582;2023-02-28T09:10:14;19.15;;;11.88;;
20185;SDS011;10252;48.792;8.582;2023-02-28T09:15:15;16.23;;;11.32;;
20185;SDS011;10252;48.792;8.582;2023-02-28T09:20:16;15.65;;;9.43;;
20185;SDS011;10252;48.792;8.582;2023-02-28T09:25:17;13.60;;;9.23;;
20185;SDS011;10252;48.792;8.582;2023-02-28T09:30:18;14.10;;;9.00;;
20185;SDS011;10252;48.792;8.582;2023-02-28T09:35:23;15.07;;;8.68;;
20185;SDS011;10252;48.792;8.582;2023-02-28T09:40:25;15.98;;;11.45;;
20185;SDS011;10252;48.792;8.582;2023-02-28T09:45:28;15.07;;;9.52;;
20185;SDS011;10252;48.792;8.582;2023-02-28T09:50:40;18.13;;;10.40;;
20185;SDS011;10252;48.792;8.582;2023-02-28T09:55:43;13.82;;;8.63;;
20185;SDS011;10252;48.792;8.582;2023-02-28T10:00:45;16.00;;;9.40;;
20185;SDS011;10252;48.792;8.582;2023-02-28T10:06:01;13.30;;;8.07;;
20185;SDS011;10252;48.792;8.582;2023-02-28T10:11:07;12.88;;;8.63;;
20185;SDS011;10252;48.792;8.582;2023-02-28T10:16:11;14.27;;;9.57;;
20185;SDS011;10252;48.792;8.582;2023-02-28T10:21:21;52.20;;;21.90;;
20185;SDS011;10252;48.792;8.582;2023-02-28T10:26:24;82.07;;;30.50;;
20185;SDS011;10252;48.792;8.582;2023-02-28T10:31:28;17.65;;;10.05;;
20185;SDS011;10252;48.792;8.582;2023-02-28T10:36:29;19.55;;;13.20;;
20185;SDS011;10252;48.792;8.582;2023-02-28T10:41:31;16.20;;;9.23;;
20185;SDS011;10252;48.792;8.582;2023-02-28T10:46:36;13.68;;;8.85;;
20185;SDS011;10252;48.792;8.582;2023-02-28T10:51:38;17.48;;;9.35;;
20185;SDS011;10252;48.792;8.582;2023-02-28T10:56:39;15.63;;;9.63;;
20185;SDS011;10252;48.792;8.582;2023-02-28T11:06:41;16.08;;;10.02;;
20185;SDS011;10252;48.792;8.582;2023-02-28T11:11:43;15.32;;;9.68;;
20185;SDS011;10252;48.792;8.582;2023-02-28T11:16:45;13.40;;;8.88;;
20185;SDS011;10252;48.792;8.582;2023-02-28T11:21:48;12.95;;;8.65;;
20185;SDS011;10252;48.792;8.582;2023-02-28T11:26:52;13.48;;;9.43;;
20185;SDS011;10252;48.792;8.582;2023-02-28T11:32:04;14.90;;;9.60;;
20185;SDS011;10252;48.792;8.582;2023-02-28T11:37:09;13.57;;;9.40;;
20185;SDS011;10252;48.792;8.582;2023-02-28T11:42:27;14.98;;;10.25;;
20185;SDS011;10252;48.792;8.582;2023-02-28T11:47:51;16.17;;;10.05;;
20185;SDS011;10252;48.792;8.582;2023-02-28T11:52:57;16.35;;;10.45;;
20185;SDS011;10252;48.792;8.582;2023-02-28T11:58:44;15.90;;;10.48;;
20185;SDS011;10252;48.792;8.582;2023-02-28T12:03:35;13.27;;;8.45;;
20185;SDS011;10252;48.792;8.582;2023-02-28T12:19:07;17.88;;;10.82;;
20185;SDS011;10252;48.792;8.582;2023-02-28T12:34:49;18.50;;;10.60;;
20185;SDS011;10252;48.792;8.582;2023-02-28T12:39:54;23.08;;;12.40;;
20185;SDS011;10252;48.792;8.582;2023-02-28T12:44:58;17.95;;;11.00;;
20185;SDS011;10252;48.792;8.582;2023-02-28T12:50:02;21.27;;;12.98;;
20185;SDS011;10252;48.792;8.582;2023-02-28T12:55:08;22.25;;;12.75;;
20185;SDS011;10252;48.792;8.582;2023-02-28T13:00:14;16.98;;;11.35;;
20185;SDS011;10252;48.792;8.582;2023-02-28T13:05:28;14.82;;;10.38;;
20185;SDS011;10252;48.792;8.582;2023-02-28T13:10:44;17.50;;;11.02;;
20185;SDS011;10252;48.792;8.582;2023-02-28T13:16:05;11.90;;;8.95;;
20185;SDS011;10252;48.792;8.582;2023-02-28T13:21:08;12.77;;;9.40;;
20185;SDS011;10252;48.792;8.582;2023-02-28T13:26:10;13.05;;;9.77;;
20185;SDS011;10252;48.792;8.582;2023-02-28T13:31:13;13.23;;;9.50;;
20185;SDS011;10252;48.792;8.582;2023-02-28T13:46:32;14.10;;;9.40;;
20185;SDS011;10252;48.792;8.582;2023-02-28T13:51:40;14.32;;;10.38;;
20185;SDS011;10252;48.792;8.582;2023-02-28T14:02:08;10.57;;;8.82;;
20185;SDS011;10252;48.792;8.582;2023-02-28T14:07:15;17.35;;;11.35;;
20185;SDS011;10252;48.792;8.582;2023-02-28T14:17:38;13.30;;;9.73;;
20185;SDS011;10252;48.792;8.582;2023-02-28T14:28:24;11.48;;;8.88;;
20185;SDS011;10252;48.792;8.582;2023-02-28T14:33:10;13.35;;;8.70;;
20185;SDS011;10252;48.792;8.582;2023-02-28T14:38:17;11.32;;;8.20;;
20185;SDS011;10252;48.792;8.582;2023-02-28T14:43:20;11.02;;;8.70;;
20185;SDS011;10252;48.792;8.582;2023-02-28T14:48:22;11.80;;;9.55;;
20185;SDS011;10252;48.792;8.582;2023-02-28T14:53:25;11.73;;;8.93;;
20185;SDS011;10252;48.792;8.582;2023-02-28T14:58:28;11.50;;;8.88;;
20185;SDS011;10252;48.792;8.582;2023-02-28T15:08:30;13.35;;;10.40;;
20185;SDS011;10252;48.792;8.582;2023-02-28T15:18:41;12.50;;;8.68;;
20185;SDS011;10252;48.792;8.582;2023-02-28T15:23:45;13.43;;;10.25;;
20185;SDS011;10252;48.792;8.582;2023-02-28T15:28:48;12.15;;;9.05;;
20185;SDS011;10252;48.792;8.582;2023-02-28T15:33:57;18.25;;;10.65;;
20185;SDS011;10252;48.792;8.582;2023-02-28T15:38:59;12.30;;;9.18;;
20185;SDS011;10252;48.792;8.582;2023-02-28T15:49:21;17.30;;;11.20;;
20185;SDS011;10252;48.792;8.582;2023-02-28T15:54:43;16.42;;;10.70;;
20185;SDS011;10252;48.792;8.582;2023-02-28T15:59:51;16.95;;;10.85;;
20185;SDS011;10252;48.792;8.582;2023-02-28T16:04:56;16.67;;;11.55;;
20185;SDS011;10252;48.792;8.582;2023-02-28T16:09:58;15.57;;;10.40;;
20185;SDS011;10252;48.792;8.582;2023-02-28T16:15:00;15.18;;;10.48;;
20185;SDS011;10252;48.792;8.582;2023-02-28T16:20:11;14.95;;;11.27;;
20185;SDS011;10252;48.792;8.582;2023-02-28T16:25:17;15.27;;;13.25;;
20185;SDS011;10252;48.792;8.582;2023-02-28T16:30:20;15.32;;;10.88;;
20185;SDS011;10252;48.792;8.582;2023-02-28T16:35:22;14.50;;;10.30;;
20185;SDS011;10252;48.792;8.582;2023-02-28T16:40:24;27.17;;;14.93;;
20185;SDS011;10252;48.792;8.582;2023-02-28T16:45:26;23.20;;;14.73;;
20185;SDS011;10252;48.792;8.582;2023-02-28T16:50:28;14.65;;;10.52;;
20185;SDS011;10252;48.792;8.582;2023-02-28T16:55:29;22.38;;;12.65;;
20185;SDS011;10252;48.792;8.582;2023-02-28T17:00:31;15.65;;;10.13;;
20185;SDS011;10252;48.792;8.582;2023-02-28T17:05:34;13.80;;;9.43;;
20185;SDS011;10252;48.792;8.582;2023-02-28T17:10:36;14.73;;;9.13;;
20185;SDS011;10252;48.792;8.582;2023-02-28T17:15:37;13.23;;;8.90;;
20185;SDS011;10252;48.792;8.582;2023-02-28T17:20:39;12.30;;;9.32;;
20185;SDS011;10252;48.792;8.582;2023-02-28T17:25:42;16.30;;;9.25;;
20185;SDS011;10252;48.792;8.582;2023-02-28T17:30:53;13.63;;;9.00;;
20185;SDS011;10252;48.792;8.582;2023-02-28T17:35:54;13.60;;;9.70;;
20185;SDS011;10252;48.792;8.582;2023-02-28T17:40:55;13.38;;;9.77;;
20185;SDS011;10252;48.792;8.582;2023-02-28T17:45:57;12.38;;;8.55;;
20185;SDS011;10252;48.792;8.582;2023-02-28T17:50:58;13.32;;;9.18;;
20185;SDS011;10252;48.792;8.582;2023-02-28T17:55:59;17.40;;;10.60;;
20185;SDS011;10252;48.792;8.582;2023-02-28T18:01:00;15.95;;;9.98;;
20185;SDS011;10252;48.792;8.582;2023-02-28T18:06:01;17.33;;;9.50;;
20185;SDS011;10252;48.792;8.582;2023-02-28T18:11:03;16.50;;;11.73;;
20185;SDS011;10252;48.792;8.582;2023-02-28T18:16:04;16.15;;;9.35;;
20185;SDS011;10252;48.792;8.582;2023-02-28T18:21:06;14.95;;;9.70;;
20185;SDS011;10252;48.792;8.582;2023-02-28T18:26:08;16.60;;;9.23;;
20185;SDS011;10252;48.792;8.582;2023-02-28T18:31:10;21.40;;;11.60;;
20185;SDS011;10252;48.792;8.582;2023-02-28T18:36:12;16.75;;;9.70;;
20185;SDS011;10252;48.792;8.582;2023-02-28T18:41:13;14.38;;;9.02;;
20185;SDS011;10252;48.792;8.582;2023-02-28T18:46:15;15.00;;;10.35;;
20185;SDS011;10252;48.792;8.582;2023-02-28T18:51:18;19.25;;;11.23;;
20185;SDS011;10252;48.792;8.582;2023-02-28T18:56:20;17.15;;;10.23;;
20185;SDS011;10252;48.792;8.582;2023-02-28T19:01:23;16.55;;;10.63;;
20185;SDS011;10252;48.792;8.582;2023-02-28T19:06:29;21.58;;;13.25;;
20185;SDS011;10252;48.792;8.582;2023-02-28T19:11:30;14.95;;;10.05;;
20185;SDS011;10252;48.792;8.582;2023-02-28T19:16:33;21.02;;;12.15;;
20185;SDS011;10252;48.792;8.582;2023-02-28T19:21:34;29.27;;;16.45;;
20185;SDS011;10252;48.792;8.582;2023-02-28T19:26:35;24.83;;;15.73;;
20185;SDS011;10252;48.792;8.582;2023-02-28T19:31:36;36.30;;;19.23;;
20185;SDS011;10252;48.792;8.582;2023-02-28T19:36:37;28.58;;;16.50;;
20185;SDS011;10252;48.792;8.582;2023-02-28T19:41:38;20.33;;;11.73;;
20185;SDS011;10252;48.792;8.582;2023-02-28T19:46:39;20.00;;;12.52;;
20185;SDS011;10252;48.792;8.582;2023-02-28T19:51:40;24.40;;;13.90;;
20185;SDS011;10252;48.792;8.582;2023-02-28T19:56:43;24.27;;;14.07;;
20185;SDS011;10252;48.792;8.582;2023-02-28T20:01:44;26.67;;;14.18;;
20185;SDS011;10252;48.792;8.582;2023-02-28T20:06:46;23.00;;;13.88;;
20185;SDS011;10252;48.792;8.582;2023-02-28T20:11:47;24.85;;;14.45;;
20185;SDS011;10252;48.792;8.582;2023-02-28T20:16:49;20.92;;;14.18;;
20185;SDS011;10252;48.792;8.582;2023-02-28T20:21:50;24.00;;;14.05;;
20185;SDS011;10252;48.792;8.582;2023-02-28T20:26:51;26.20;;;16.15;;
20185;SDS011;10252;48.792;8.582;2023-02-28T20:31:52;24.98;;;13.75;;
20185;SDS011;10252;48.792;8.582;2023-02-28T20:36:54;25.35;;;15.00;;
20185;SDS011;10252;48.792;8.582;2023-02-28T20:41:58;22.15;;;13.63;;
20185;SDS011;10252;48.792;8.582;2023-02-28T20:46:59;23.30;;;14.25;;
20185;SDS011;10252;48.792;8.582;2023-02-28T20:52:00;18.83;;;12.05;;
20185;SDS011;10252;48.792;8.582;2023-02-28T20:57:02;17.17;;;10.05;;
20185;SDS011;10252;48.792;8.582;2023-02-28T21:02:03;17.63;;;10.60;;
20185;SDS011;10252;48.792;8.582;2023-02-28T21:07:04;17.80;;;10.75;;
20185;SDS011;10252;48.792;8.582;2023-02-28T21:12:05;23.08;;;12.30;;
20185;SDS011;10252;48.792;8.582;2023-02-28T21:17:06;19.73;;;11.63;;
20185;SDS011;10252;48.792;8.582;2023-02-28T21:22:09;18.88;;;11.18;;
20185;SDS011;10252;48.792;8.582;2023-02-28T21:27:11;21.00;;;12.77;;
20185;SDS011;10252;48.792;8.582;2023-02-28T21:32:12;23.88;;;12.35;;
20185;SDS011;10252;48.792;8.582;2023-02-28T21:37:13;20.60;;;12.60;;
20185;SDS011;10252;48.792;8.582;2023-02-28T21:42:14;19.35;;;12.50;;
20185;SDS011;10252;48.792;8.582;2023-02-28T21:47:15;23.90;;;12.80;;
20185;SDS011;10252;48.792;8.582;2023-02-28T21:52:16;26.52;;;13.90;;
20185;SDS011;10252;48.792;8.582;2023-02-28T21:57:20;22.33;;;13.05;;
20185;SDS011;10252;48.792;8.582;2023-02-28T22:02:22;27.17;;;13.02;;
20185;SDS011;10252;48.792;8.582;2023-02-28T22:07:23;18.88;;;12.38;;
20185;SDS011;10252;48.792;8.582;2023-02-28T22:12:24;18.15;;;11.38;;
20185;SDS011;10252;48.792;8.582;2023-02-28T22:17:25;19.58;;;11.68;;
20185;SDS011;10252;48.792;8.582;2023-02-28T22:22:26;20.77;;;12.13;;
20185;SDS011;10252;48.792;8.582;2023-02-28T22:27:27;24.42;;;13.70;;
20185;SDS011;10252;48.792;8.582;2023-02-28T22:32:28;22.50;;;13.00;;
20185;SDS011;10252;48.792;8.582;2023-02-28T22:37:29;18.60;;;11.20;;
20185;SDS011;10252;48.792;8.582;2023-02-28T22:42:33;18.85;;;11.68;;
20185;SDS011;10252;48.792;8.582;2023-02-28T22:47:34;17.52;;;11.38;;
20185;SDS011;10252;48.792;8.582;2023-02-28T22:52:37;19.27;;;11.13;;
20185;SDS011;10252;48.792;8.582;2023-02-28T22:57:38;16.50;;;10.20;;
20185;SDS011;10252;48.792;8.582;2023-02-28T23:02:43;19.67;;;10.88;;
20185;SDS011;10252;48.792;8.582;2023-02-28T23:07:44;19.55;;;11.90;;
20185;SDS011;10252;48.792;8.582;2023-02-28T23:12:45;21.02;;;11.82;;
20185;SDS011;10252;48.792;8.582;2023-02-28T23:17:49;21.08;;;12.15;;
20185;SDS011;10252;48.792;8.582;2023-02-28T23:22:50;23.88;;;12.82;;
20185;SDS011;10252;48.792;8.582;2023-02-28T23:27:51;22.42;;;12.20;;
20185;SDS011;10252;48.792;8.582;2023-02-28T23:32:52;20.25;;;12.85;;
20185;SDS011;10252;48.792;8.582;2023-02-28T23:37:54;25.80;;;13.10;;
20185;SDS011;10252;48.792;8.582;2023-02-28T23:42:56;24.55;;;13.02;;
20185;SDS011;10252;48.792;8.582;2023-02-28T23:47:57;24.23;;;11.60;;
20185;SDS011;10252;48.792;8.582;2023-02-28T23:52:58;21.60;;;12.50;;
20185;SDS011;10252;48.792;8.582;2023-02-28T23:57:59;24.02;;;12.35;;
